createdAt,value
2022-09-24T00:00:58.426Z,34
2022-09-24T00:05:49.378Z,26
2022-09-24T00:10:21.686Z,30
2022-09-24T00:13:30.375Z,34
2022-09-24T00:18:00.036Z,33
2022-09-24T00:22:42.918Z,43
2022-09-24T00:25:36.330Z,35
2022-09-24T00:31:14.397Z,41
2022-09-24T00:32:18.670Z,41
2022-09-24T00:37:06.897Z,37
2022-09-24T00:41:01.462Z,38
2022-09-24T00:44:25.250Z,31
2022-09-24T00:49:46.138Z,30
2022-09-24T00:54:16.144Z,40
2022-09-24T00:55:21.537Z,38
2022-09-24T00:56:25.733Z,43
2022-09-24T01:00:04.314Z,38
2022-09-24T01:03:59.426Z,41
2022-09-24T01:08:44.485Z,34
2022-09-24T01:11:38.096Z,28
2022-09-24T01:12:52.521Z,30
2022-09-24T01:15:47.807Z,32
2022-09-24T01:18:43.153Z,29
2022-09-24T01:23:33.802Z,29
2022-09-24T01:24:45.961Z,28
2022-09-24T01:26:00.245Z,32
2022-09-24T01:27:14.738Z,31
2022-09-24T01:31:48.852Z,33
2022-09-24T01:32:52.885Z,32
2022-09-24T01:39:09.877Z,36
2022-09-24T01:41:50.872Z,40
2022-09-24T01:46:33.896Z,47
2022-09-24T01:47:41.314Z,48
2022-09-24T01:48:45.458Z,51
2022-09-24T01:53:15.013Z,48
2022-09-24T01:54:29.114Z,49
2022-09-24T01:57:22.586Z,43
2022-09-24T01:58:26.802Z,47
2022-09-24T02:02:05.549Z,54
2022-09-24T02:05:04.590Z,44
2022-09-24T02:06:08.930Z,51
2022-09-24T02:07:15.830Z,50
2022-09-24T02:11:59.151Z,53
2022-09-24T02:15:32.191Z,57
2022-09-24T02:19:10.226Z,48
2022-09-24T02:20:19.614Z,47
2022-09-24T02:21:23.901Z,50
2022-09-24T02:26:06.941Z,46
2022-09-24T02:30:49.802Z,52
2022-09-24T02:35:34.532Z,58
2022-09-24T02:36:43.133Z,49
2022-09-24T02:40:11.710Z,60
2022-09-24T02:41:15.870Z,50
2022-09-24T02:46:46.983Z,61
2022-09-24T02:47:50.936Z,54
2022-09-24T02:48:55.126Z,52
2022-09-24T02:49:59.365Z,52
2022-09-24T02:51:03.734Z,51
2022-09-24T02:52:07.965Z,59
2022-09-24T02:53:12.094Z,52
2022-09-24T02:54:16.233Z,50
2022-09-24T02:55:20.922Z,51
2022-09-24T02:56:25.117Z,55
2022-09-24T03:01:08.155Z,48
2022-09-24T03:06:21.152Z,48
2022-09-24T03:11:01.243Z,41
2022-09-24T03:13:54.854Z,38
2022-09-24T03:14:59.261Z,41
2022-09-24T03:17:52.901Z,40
2022-09-24T03:18:57.119Z,41
2022-09-24T03:21:50.907Z,42
2022-09-24T03:22:55.141Z,40
2022-09-24T03:27:37.934Z,41
2022-09-24T03:28:41.954Z,38
2022-09-24T03:31:35.607Z,44
2022-09-24T03:32:39.895Z,38
2022-09-24T03:33:44.276Z,41
2022-09-24T03:34:48.612Z,44
2022-09-24T03:39:31.918Z,42
2022-09-24T03:40:36.171Z,36
2022-09-24T03:45:06.186Z,31
2022-09-24T03:49:49.116Z,32
2022-09-24T03:55:12.317Z,25
2022-09-24T03:56:16.637Z,37
2022-09-24T04:01:47.438Z,33
2022-09-24T04:02:51.795Z,28
2022-09-24T04:05:45.467Z,30
2022-09-24T04:06:49.629Z,25
2022-09-24T04:07:53.844Z,33
2022-09-24T04:08:57.921Z,37
2022-09-24T04:13:28.045Z,40
2022-09-24T04:14:34.641Z,34
2022-09-24T04:15:38.869Z,33
2022-09-24T04:19:17.714Z,32
2022-09-24T04:20:21.865Z,28
2022-09-24T04:21:26.133Z,30
2022-09-24T04:22:30.343Z,29
2022-09-24T04:23:37.621Z,32
2022-09-24T04:24:41.896Z,33
2022-09-24T04:27:35.696Z,32
2022-09-24T04:32:19.928Z,33
2022-09-24T04:33:25.448Z,26
2022-09-24T04:38:08.540Z,30
2022-09-24T04:42:38.644Z,36
2022-09-24T04:45:32.414Z,38
2022-09-24T04:46:37.807Z,46
2022-09-24T04:47:41.914Z,40
2022-09-24T04:52:24.577Z,41
2022-09-24T04:55:18.670Z,40
2022-09-24T04:56:22.904Z,33
2022-09-24T05:01:06.913Z,37
2022-09-24T05:02:11.328Z,39
2022-09-24T05:06:54.303Z,35
2022-09-24T05:10:17.892Z,38
2022-09-24T05:14:46.745Z,34
2022-09-24T05:15:51.032Z,41
2022-09-24T05:16:55.092Z,32
2022-09-24T05:20:49.604Z,38
2022-09-24T05:21:53.788Z,35
2022-09-24T05:24:47.424Z,37
2022-09-24T05:29:30.654Z,40
2022-09-24T05:34:00.221Z,25
2022-09-24T05:37:23.744Z,36
2022-09-24T05:38:27.938Z,35
2022-09-24T05:39:34.053Z,34
2022-09-24T05:40:36.569Z,38
2022-09-24T05:43:35.224Z,29
2022-09-24T05:44:39.350Z,33
2022-09-24T05:45:46.065Z,25
2022-09-24T05:46:50.366Z,32
2022-09-24T05:51:33.704Z,38
2022-09-24T05:57:01.424Z,31
2022-09-24T06:01:26.124Z,36
2022-09-24T06:04:22.338Z,45
2022-09-24T06:09:05.610Z,36
2022-09-24T06:13:49.183Z,35
2022-09-24T06:18:32.286Z,40
2022-09-24T06:19:41.598Z,44
2022-09-24T06:20:46.082Z,44
2022-09-24T06:24:24.801Z,37
2022-09-24T06:25:44.111Z,36
2022-09-24T06:26:51.151Z,41
2022-09-24T06:31:21.381Z,37
2022-09-24T06:36:04.423Z,37
2022-09-24T06:40:47.483Z,42
2022-09-24T06:46:00.385Z,47
2022-09-24T06:49:40.404Z,44
2022-09-24T06:50:44.737Z,46
2022-09-24T06:51:49.028Z,48
2022-09-24T06:52:53.180Z,49
2022-09-24T06:53:57.666Z,52
2022-09-24T06:55:01.897Z,49
2022-09-24T06:56:06.532Z,53
2022-09-24T06:57:11.360Z,55
2022-09-24T06:58:18.729Z,55
2022-09-24T06:59:23.013Z,49
2022-09-24T07:02:16.429Z,49
2022-09-24T07:03:20.468Z,52
2022-09-24T07:04:29.348Z,50
2022-09-24T07:05:33.565Z,46
2022-09-24T07:06:37.997Z,47
2022-09-24T07:07:47.560Z,48
2022-09-24T07:08:51.782Z,48
2022-09-24T07:09:57.432Z,48
2022-09-24T07:11:10.789Z,49
2022-09-24T07:12:15.013Z,47
2022-09-24T07:13:20.518Z,48
2022-09-24T07:14:25.790Z,49
2022-09-24T07:15:30.704Z,48
2022-09-24T07:20:13.600Z,46
2022-09-24T07:21:18.277Z,46
2022-09-24T07:22:22.475Z,45
2022-09-24T07:23:26.648Z,46
2022-09-24T07:24:35.093Z,45
2022-09-24T07:25:39.263Z,47
2022-09-24T07:26:45.561Z,47
2022-09-24T07:27:52.248Z,47
2022-09-24T07:28:56.496Z,51
2022-09-24T07:33:39.532Z,47
2022-09-24T07:34:44.588Z,46
2022-09-24T07:35:48.820Z,46
2022-09-24T07:40:32.066Z,34
2022-09-24T07:43:25.847Z,29
2022-09-24T07:48:13.441Z,35
2022-09-24T07:52:57.161Z,33
2022-09-24T07:57:51.070Z,32
2022-09-24T08:02:33.913Z,30
2022-09-24T08:04:21.138Z,29
2022-09-24T08:09:03.765Z,28
2022-09-24T08:13:46.632Z,30
2022-09-24T08:18:29.681Z,33
2022-09-24T08:19:33.714Z,26
2022-09-24T08:20:37.821Z,32
2022-09-24T08:25:08.167Z,29
2022-09-24T08:30:06.176Z,52
2022-09-24T08:34:36.477Z,28
2022-09-24T08:39:19.425Z,29
2022-09-24T08:44:02.344Z,37
2022-09-24T08:48:45.240Z,27
2022-09-24T08:54:21.037Z,30
2022-09-24T08:57:54.541Z,32
2022-09-24T09:02:37.315Z,30
2022-09-24T09:03:44.116Z,27
2022-09-24T09:09:07.096Z,32
2022-09-24T09:14:31.505Z,29
2022-09-24T09:15:44.933Z,25
2022-09-24T09:20:37.825Z,35
2022-09-24T09:26:18.463Z,26
2022-09-24T09:29:39.684Z,38
2022-09-24T09:32:33.390Z,32
2022-09-24T09:37:56.265Z,34
2022-09-24T09:43:15.260Z,33
2022-09-24T09:47:45.209Z,30
2022-09-24T09:53:23.142Z,36
2022-09-24T09:56:50.150Z,37
2022-09-24T10:02:03.313Z,31
2022-09-24T10:03:07.352Z,28
2022-09-24T10:04:21.704Z,30
2022-09-24T10:05:35.965Z,40
2022-09-24T10:08:39.313Z,25
2022-09-24T10:09:43.508Z,34
2022-09-24T10:14:56.268Z,42
2022-09-24T10:16:03.621Z,30
2022-09-24T10:19:32.178Z,34
2022-09-24T10:28:43.681Z,33
2022-09-24T10:29:52.721Z,37
2022-09-24T10:31:02.072Z,26
2022-09-24T10:36:19.922Z,25
2022-09-24T10:40:49.956Z,25
2022-09-24T10:45:52.567Z,32
2022-09-24T10:50:26.627Z,26
2022-09-24T10:55:39.804Z,29
2022-09-24T11:00:42.532Z,31
2022-09-24T11:01:57.058Z,30
2022-09-24T11:07:14.767Z,26
2022-09-24T11:11:49.644Z,30
2022-09-24T11:16:40.732Z,25
2022-09-24T11:17:55.451Z,36
2022-09-24T11:22:48.531Z,31
2022-09-24T11:24:00.967Z,30
2022-09-24T11:25:16.040Z,27
2022-09-24T11:28:44.692Z,32
2022-09-24T11:34:00.380Z,29
2022-09-24T11:39:38.200Z,28
2022-09-24T11:44:31.217Z,26
2022-09-24T11:45:40.455Z,39
2022-09-24T11:50:31.573Z,46
2022-09-24T11:56:17.309Z,31
2022-09-24T11:59:41.397Z,36
2022-09-24T12:04:29.292Z,34
2022-09-24T12:05:43.464Z,30
2022-09-24T12:09:06.853Z,31
2022-09-24T12:10:16.196Z,34
2022-09-24T12:15:05.963Z,34
2022-09-24T12:20:15.680Z,34
2022-09-24T12:21:25.044Z,26
2022-09-24T12:26:25.983Z,37
2022-09-24T12:30:56.697Z,41
2022-09-24T12:35:45.074Z,46
2022-09-24T12:36:56.902Z,43
2022-09-24T12:41:42.069Z,28
2022-09-24T12:46:25.681Z,29
2022-09-24T12:52:01.799Z,46
2022-09-24T13:00:43.427Z,40
2022-09-24T13:01:47.883Z,34
2022-09-24T13:05:12.639Z,38
2022-09-24T13:06:19.494Z,27
2022-09-24T13:11:45.527Z,37
2022-09-24T13:16:28.512Z,50
2022-09-24T13:21:41.090Z,43
2022-09-24T13:26:24.060Z,43
2022-09-24T13:32:00.017Z,36
2022-09-24T13:47:53.939Z,53
2022-09-24T13:49:03.395Z,57
2022-09-24T13:50:12.370Z,50
2022-09-24T13:51:21.730Z,46
2022-09-24T13:52:26.927Z,52
2022-09-24T13:53:31.915Z,46
2022-09-24T13:54:41.126Z,48
2022-09-24T13:55:53.387Z,50
2022-09-24T13:57:00.354Z,49
2022-09-24T13:58:12.494Z,46
2022-09-24T13:59:27.119Z,51
2022-09-24T14:00:31.348Z,54
2022-09-24T14:01:35.609Z,50
2022-09-24T14:02:45.204Z,41
2022-09-24T14:04:02.930Z,44
2022-09-24T14:05:07.362Z,58
2022-09-24T14:06:16.963Z,45
2022-09-24T14:07:23.467Z,42
2022-09-24T14:08:27.737Z,38
2022-09-24T14:09:32.305Z,46
2022-09-24T14:10:37.878Z,51
2022-09-24T14:11:45.535Z,52
2022-09-24T14:12:53.039Z,45
2022-09-24T14:14:07.598Z,43
2022-09-24T14:15:11.931Z,47
2022-09-24T14:16:16.278Z,40
2022-09-24T14:17:20.300Z,40
2022-09-24T14:18:24.779Z,42
2022-09-24T14:19:30.464Z,40
2022-09-24T14:20:34.918Z,44
2022-09-24T14:21:40.346Z,46
2022-09-24T14:22:44.649Z,53
2022-09-24T14:23:48.757Z,54
2022-09-24T14:24:58.287Z,48
2022-09-24T14:26:09.030Z,42
2022-09-24T14:27:13.162Z,44
2022-09-24T14:28:17.698Z,54
2022-09-24T14:29:22.211Z,54
2022-09-24T14:30:29.090Z,47
2022-09-24T14:31:35.204Z,49
2022-09-24T14:32:47.799Z,53
2022-09-24T14:33:57.295Z,72
2022-09-24T14:35:02.033Z,61
2022-09-24T14:36:10.195Z,65
2022-09-24T14:37:17.515Z,65
2022-09-24T14:38:25.174Z,71
2022-09-24T14:39:37.174Z,64
2022-09-24T14:40:43.803Z,67
2022-09-24T14:41:50.767Z,67
2022-09-24T14:42:54.819Z,61
2022-09-24T14:43:59.278Z,63
2022-09-24T14:45:03.598Z,56
2022-09-24T14:46:08.086Z,57
2022-09-24T14:47:17.354Z,65
2022-09-24T14:48:33.318Z,60
2022-09-24T14:49:38.007Z,60
2022-09-24T14:50:48.013Z,64
2022-09-24T14:51:54.579Z,62
2022-09-24T14:52:59.170Z,77
2022-09-24T14:54:06.542Z,73
2022-09-24T14:55:22.269Z,69
2022-09-24T14:56:31.374Z,70
2022-09-24T14:57:35.871Z,76
2022-09-24T14:58:40.074Z,66
2022-09-24T14:59:44.239Z,74
2022-09-24T15:00:48.306Z,73
2022-09-24T15:01:52.414Z,73
2022-09-24T15:03:05.018Z,74
2022-09-24T15:05:19.339Z,75
2022-09-24T15:06:26.769Z,88
2022-09-24T15:07:35.523Z,86
2022-09-24T15:08:39.817Z,85
2022-09-24T15:09:45.863Z,88
2022-09-24T15:10:50.169Z,80
2022-09-24T15:11:59.994Z,87
2022-09-24T15:13:12.549Z,84
2022-09-24T15:14:16.722Z,83
2022-09-24T15:15:21.538Z,93
2022-09-24T15:16:29.017Z,94
2022-09-24T15:17:33.597Z,94
2022-09-24T15:18:37.678Z,99
2022-09-24T15:19:42.186Z,97
2022-09-24T15:20:46.833Z,97
2022-09-24T15:21:52.682Z,107
2022-09-24T15:22:56.825Z,116
2022-09-24T15:24:02.453Z,117
2022-09-24T15:25:07.205Z,118
2022-09-24T15:26:13.962Z,114
2022-09-24T15:27:18.087Z,111
2022-09-24T15:28:25.155Z,110
2022-09-24T15:29:33.806Z,112
2022-09-24T15:30:43.342Z,113
2022-09-24T15:31:47.469Z,115
2022-09-24T15:32:51.711Z,121
2022-09-24T15:33:55.802Z,122
2022-09-24T15:34:59.878Z,119
2022-09-24T15:36:04.013Z,121
2022-09-24T15:37:08.960Z,124
2022-09-24T15:38:12.951Z,129
2022-09-24T15:39:17.045Z,123
2022-09-24T15:40:23.605Z,117
2022-09-24T15:41:27.510Z,115
2022-09-24T15:42:36.129Z,113
2022-09-24T15:43:40.417Z,119
2022-09-24T15:44:45.045Z,118
2022-09-24T15:45:49.377Z,120
2022-09-24T15:46:53.590Z,120
2022-09-24T15:47:57.871Z,121
2022-09-24T15:49:02.437Z,117
2022-09-24T15:50:06.529Z,117
2022-09-24T15:51:15.106Z,124
2022-09-24T15:52:15.732Z,119
2022-09-24T15:53:25.886Z,129
2022-09-24T15:54:30.034Z,128
2022-09-24T15:55:35.111Z,132
2022-09-24T15:56:43.526Z,132
2022-09-24T15:57:43.590Z,128
2022-09-24T15:58:48.315Z,132
2022-09-24T15:59:52.894Z,130
2022-09-24T16:00:57.021Z,139
2022-09-24T16:02:01.202Z,150
2022-09-24T16:03:08.298Z,152
2022-09-24T16:04:18.575Z,147
2022-09-24T16:05:22.654Z,144
2022-09-24T16:06:26.823Z,144
2022-09-24T16:07:31.960Z,138
2022-09-24T16:08:36.047Z,136
2022-09-24T16:09:40.462Z,140
2022-09-24T16:10:45.430Z,139
2022-09-24T16:11:49.674Z,139
2022-09-24T16:12:54.166Z,135
2022-09-24T16:13:58.342Z,134
2022-09-24T16:15:02.927Z,135
2022-09-24T16:16:07.293Z,137
2022-09-24T16:17:16.778Z,132
2022-09-24T16:18:21.254Z,137
2022-09-24T16:19:25.815Z,136
2022-09-24T16:20:29.958Z,136
2022-09-24T16:21:34.022Z,135
2022-09-24T16:22:39.519Z,130
2022-09-24T16:23:44.269Z,138
2022-09-24T16:24:52.118Z,137
2022-09-24T16:25:59.294Z,136
2022-09-24T16:27:03.853Z,141
2022-09-24T16:28:08.114Z,141
2022-09-24T16:31:01.634Z,137
2022-09-24T16:32:05.953Z,142
2022-09-24T16:34:59.618Z,134
2022-09-24T16:37:53.857Z,142
2022-09-24T16:38:57.928Z,139
2022-09-24T16:40:53.077Z,142
2022-09-24T16:42:00.460Z,146
2022-09-24T16:43:04.719Z,144
2022-09-24T16:44:09.620Z,144
2022-09-24T16:45:13.794Z,150
2022-09-24T16:46:20.758Z,150
2022-09-24T16:47:22.579Z,157
2022-09-24T16:50:16.626Z,165
2022-09-24T16:51:20.895Z,164
2022-09-24T16:56:04.828Z,157
2022-09-24T17:00:50.326Z,128
2022-09-24T17:05:33.403Z,111
2022-09-24T17:11:09.594Z,104
2022-09-24T17:12:14.170Z,107
2022-09-24T17:13:19.079Z,101
2022-09-24T17:14:23.227Z,108
2022-09-24T17:15:28.796Z,113
2022-09-24T17:16:32.991Z,111
2022-09-24T17:17:44.374Z,113
2022-09-24T17:18:42.363Z,112
2022-09-24T17:19:47.084Z,115
2022-09-24T17:20:51.474Z,123
2022-09-24T17:22:03.632Z,114
2022-09-24T17:26:46.887Z,136
2022-09-24T17:27:51.084Z,137
2022-09-24T17:28:56.107Z,149
2022-09-24T17:30:00.581Z,153
2022-09-24T17:31:04.930Z,162
2022-09-24T17:32:09.120Z,167
2022-09-24T17:33:38.991Z,170
2022-09-24T17:34:17.749Z,167
2022-09-24T17:35:22.319Z,171
2022-09-24T17:36:26.666Z,181
2022-09-24T17:37:31.691Z,181
2022-09-24T17:38:36.467Z,167
2022-09-24T17:39:44.846Z,173
2022-09-24T17:40:50.196Z,160
2022-09-24T17:41:57.610Z,162
2022-09-24T17:43:01.950Z,153
2022-09-24T17:44:06.074Z,147
2022-09-24T17:45:10.186Z,146
2022-09-24T17:46:14.949Z,137
2022-09-24T17:47:18.662Z,136
2022-09-24T17:48:23.495Z,131
2022-09-24T17:49:31.859Z,132
2022-09-24T17:51:39.608Z,126
2022-09-24T17:52:44.088Z,117
2022-09-24T17:53:48.953Z,127
2022-09-24T17:54:53.122Z,125
2022-09-24T17:55:57.496Z,119
2022-09-24T17:57:02.103Z,117
2022-09-24T17:58:06.346Z,124
2022-09-24T17:59:11.297Z,130
2022-09-24T18:00:15.887Z,136
2022-09-24T18:01:24.654Z,138
2022-09-24T18:02:31.485Z,136
2022-09-24T18:03:38.706Z,132
2022-09-24T18:04:43.178Z,133
2022-09-24T18:05:47.615Z,126
2022-09-24T18:06:51.890Z,125
2022-09-24T18:07:56.439Z,122
2022-09-24T18:09:01.607Z,123
2022-09-24T18:10:06.726Z,112
2022-09-24T18:11:11.846Z,114
2022-09-24T18:12:21.891Z,114
2022-09-24T18:13:26.255Z,115
2022-09-24T18:14:32.154Z,116
2022-09-24T18:15:39.184Z,110
2022-09-24T18:16:43.518Z,110
2022-09-24T18:17:48.027Z,103
2022-09-24T18:18:52.106Z,109
2022-09-24T18:19:56.598Z,105
2022-09-24T18:21:01.103Z,102
2022-09-24T18:22:05.674Z,96
2022-09-24T18:23:10.482Z,100
2022-09-24T18:24:14.715Z,103
2022-09-24T18:25:19.268Z,104
2022-09-24T18:26:24.526Z,106
2022-09-24T18:27:31.261Z,104
2022-09-24T18:28:37.367Z,104
2022-09-24T18:29:42.222Z,109
2022-09-24T18:30:47.257Z,111
2022-09-24T18:31:51.730Z,115
2022-09-24T18:32:56.054Z,109
2022-09-24T18:34:00.658Z,116
2022-09-24T18:35:05.559Z,129
2022-09-24T18:36:10.758Z,124
2022-09-24T18:37:15.619Z,129
2022-09-24T18:38:20.243Z,130
2022-09-24T18:39:27.991Z,129
2022-09-24T18:40:32.516Z,127
2022-09-24T18:41:36.787Z,129
2022-09-24T18:42:42.341Z,129
2022-09-24T18:43:46.855Z,123
2022-09-24T18:44:51.314Z,125
2022-09-24T18:45:55.570Z,132
2022-09-24T18:47:07.694Z,134
2022-09-24T18:48:12.063Z,131
2022-09-24T18:49:16.803Z,134
2022-09-24T18:50:21.790Z,137
2022-09-24T18:51:26.750Z,134
2022-09-24T18:52:38.239Z,132
2022-09-24T18:53:46.669Z,135
2022-09-24T18:58:29.881Z,125
2022-09-24T19:02:57.832Z,114
2022-09-24T19:04:02.406Z,116
2022-09-24T19:05:06.682Z,111
2022-09-24T19:06:13.054Z,117
2022-09-24T19:07:17.338Z,106
2022-09-24T19:08:25.078Z,115
2022-09-24T19:09:29.358Z,101
2022-09-24T19:10:34.962Z,100
2022-09-24T19:11:39.566Z,96
2022-09-24T19:12:44.397Z,90
2022-09-24T19:13:52.077Z,97
2022-09-24T19:14:59.751Z,87
2022-09-24T19:16:04.572Z,85
2022-09-24T19:17:11.511Z,82
2022-09-24T19:18:16.223Z,76
2022-09-24T19:19:20.575Z,74
2022-09-24T19:20:28.130Z,72
2022-09-24T19:21:32.510Z,78
2022-09-24T19:22:37.310Z,78
2022-09-24T19:23:41.691Z,70
2022-09-24T19:28:11.967Z,89
2022-09-24T19:32:00.696Z,96
2022-09-24T19:33:05.152Z,95
2022-09-24T19:34:09.529Z,89
2022-09-24T19:35:38.746Z,97
2022-09-24T19:36:48.067Z,104
2022-09-24T19:37:52.563Z,99
2022-09-24T19:42:34.732Z,104
2022-09-24T19:43:39.851Z,108
2022-09-24T19:44:44.070Z,113
2022-09-24T19:45:48.337Z,105
2022-09-24T19:48:20.555Z,105
2022-09-24T19:50:04.919Z,113
2022-09-24T19:51:09.540Z,99
2022-09-24T19:52:17.587Z,98
2022-09-24T19:55:30.643Z,90
2022-09-24T19:56:34.883Z,88
2022-09-24T19:57:42.483Z,83
2022-09-24T19:58:47.086Z,74
2022-09-24T20:03:45.511Z,70
2022-09-24T20:04:50.071Z,67
2022-09-24T20:07:48.076Z,67
2022-09-24T20:09:21.427Z,69
2022-09-24T20:10:30.639Z,69
2022-09-24T20:15:34.132Z,65
2022-09-24T20:18:43.017Z,69
2022-09-24T20:22:08.804Z,68
2022-09-24T20:23:33.191Z,67
2022-09-24T20:24:37.567Z,63
2022-09-24T20:26:57.768Z,63
2022-09-24T20:28:22.184Z,72
2022-09-24T20:31:16.871Z,71
2022-09-24T20:34:00.319Z,72
2022-09-24T20:35:04.723Z,69
2022-09-24T20:36:14.905Z,71
2022-09-24T20:41:39.147Z,65
2022-09-24T20:42:43.259Z,52
2022-09-24T20:47:46.387Z,42
2022-09-24T20:50:39.940Z,36
2022-09-24T20:51:44.191Z,41
2022-09-24T20:52:49.463Z,40
2022-09-24T20:55:42.899Z,37
2022-09-24T20:58:21.432Z,34
2022-09-24T20:59:49.542Z,38
2022-09-24T21:00:54.016Z,37
2022-09-24T21:01:58.292Z,39
2022-09-24T21:03:45.702Z,41
2022-09-24T21:08:49.948Z,35
2022-09-24T21:11:44.130Z,26
2022-09-24T21:12:53.332Z,33
2022-09-24T21:14:27.516Z,30
2022-09-24T21:15:47.003Z,25
2022-09-24T21:16:51.110Z,28
2022-09-24T21:18:18.676Z,29
2022-09-24T21:18:59.623Z,27
2022-09-24T21:22:13.669Z,25
2022-09-24T21:23:17.755Z,25
2022-09-24T21:24:24.246Z,32
2022-09-24T21:25:54.629Z,28
2022-09-24T21:27:16.131Z,26
2022-09-24T21:30:20.518Z,31
2022-09-24T21:31:24.787Z,32
2022-09-24T21:32:50.566Z,25
2022-09-24T21:33:54.658Z,31
2022-09-24T21:34:58.851Z,29
2022-09-24T21:36:03.118Z,40
2022-09-24T21:37:48.279Z,36
2022-09-24T21:40:42.231Z,37
2022-09-24T21:41:47.299Z,38
2022-09-24T21:44:46.887Z,39
2022-09-24T21:49:30.252Z,32
2022-09-24T21:52:44.288Z,31
2022-09-24T21:55:37.803Z,31
2022-09-24T21:58:47.463Z,28
2022-09-24T21:59:52.823Z,25
2022-09-24T22:01:04.881Z,29
2022-09-24T22:02:16.307Z,28
2022-09-24T22:03:20.782Z,25
2022-09-24T22:04:52.537Z,25
2022-09-24T22:05:56.928Z,34
2022-09-24T22:09:12.371Z,32
2022-09-24T22:10:57.310Z,29
2022-09-24T22:12:06.591Z,33
2022-09-24T22:13:10.982Z,30
2022-09-24T22:14:15.074Z,35
2022-09-24T22:15:29.422Z,37
2022-09-24T22:18:15.067Z,33
2022-09-24T22:19:19.286Z,43
2022-09-24T22:20:23.773Z,40
2022-09-24T22:21:32.967Z,34
2022-09-24T22:26:31.302Z,34
2022-09-24T22:28:20.010Z,33
2022-09-24T22:32:59.106Z,29
2022-09-24T22:34:03.391Z,25
2022-09-24T22:35:17.691Z,30
2022-09-24T22:38:00.944Z,28
2022-09-24T22:39:15.351Z,34
2022-09-24T22:42:59.215Z,26
2022-09-24T22:44:03.275Z,34
2022-09-24T22:45:12.870Z,25
2022-09-24T22:46:17.393Z,33
2022-09-24T22:47:22.426Z,30
2022-09-24T22:48:27.971Z,36
2022-09-24T22:49:32.398Z,34
2022-09-24T22:50:36.626Z,36
2022-09-24T22:51:41.184Z,32
2022-09-24T22:52:47.888Z,38
2022-09-24T22:53:52.455Z,35
2022-09-24T22:54:57.176Z,33
2022-09-24T22:56:06.683Z,36
2022-09-24T22:57:15.985Z,33
2022-09-24T22:58:21.827Z,32
2022-09-24T22:59:26.881Z,36
2022-09-24T23:00:31.246Z,35
2022-09-24T23:01:35.556Z,35
2022-09-24T23:02:39.667Z,35
2022-09-24T23:03:44.846Z,37
2022-09-24T23:04:49.031Z,34
2022-09-24T23:05:58.211Z,42
2022-09-24T23:07:03.555Z,41
2022-09-24T23:08:07.715Z,40
2022-09-24T23:09:14.871Z,41
2022-09-24T23:10:18.954Z,42
2022-09-24T23:11:23.126Z,39
2022-09-24T23:12:28.858Z,35
2022-09-24T23:13:36.083Z,35
2022-09-24T23:14:40.451Z,34
2022-09-24T23:15:44.838Z,33
2022-09-24T23:16:53.928Z,31
2022-09-24T23:18:08.171Z,31
2022-09-24T23:19:12.227Z,29
2022-09-24T23:20:56.595Z,28
2022-09-24T23:22:04.922Z,28
2022-09-24T23:23:26.490Z,30
2022-09-24T23:24:32.964Z,27
2022-09-24T23:25:37.138Z,31
2022-09-24T23:26:57.467Z,25
2022-09-24T23:28:16.897Z,31
2022-09-24T23:30:11.133Z,30
2022-09-24T23:31:15.278Z,30
2022-09-24T23:32:20.883Z,27
2022-09-24T23:33:49.310Z,28
2022-09-24T23:35:08.735Z,32
2022-09-24T23:36:12.811Z,27
2022-09-24T23:37:37.165Z,26
2022-09-24T23:38:51.706Z,28
2022-09-24T23:41:45.367Z,30
2022-09-24T23:42:50.082Z,34
2022-09-24T23:43:54.234Z,32
2022-09-24T23:44:59.898Z,32
2022-09-24T23:46:06.973Z,32
2022-09-24T23:47:11.622Z,30
2022-09-24T23:48:16.869Z,33
2022-09-24T23:49:30.931Z,34
2022-09-24T23:50:58.714Z,27
2022-09-24T23:52:02.839Z,31
2022-09-24T23:53:07.868Z,27
2022-09-24T23:54:11.977Z,30
2022-09-24T23:55:36.817Z,31
2022-09-24T23:56:56.100Z,34
2022-09-24T23:58:01.600Z,33
